LIPQ/TRS METAR and TAF weather

Enter ICAO airport designator
Station Type Date Time Source
LIPQ METAR 2020/01/24 03:20 UTC NOAA

LIPQ 240320Z AUTO 35003KT 9999 NCD M03/M04 Q1028


Station Type Date Time Source
LIPQ Decoded METAR 2020/01/24 03:20 UTC NOAA

Ronchi Dei Legionari, Italy (LIPQ) 45-49N 013-29E 12M
Jan 23, 2020 - 10:20 PM EST / 2020.01.24 0320 UTC
Wind: from the N (350 degrees) at 3 MPH (3 KT):0
Visibility: greater than 7 mile(s):0
Temperature: 26 F (-3 C)
Dew Point: 24 F (-4 C)
Relative Humidity: 92%
Pressure (altimeter): 30.36 in. Hg (1028 hPa)
ob: LIPQ 240320Z AUTO 35003KT 9999 NCD M03/M04 Q1028
cycle: 3

Station Type Date Time Source
LIPQ TAF 2020/01/23 18:26 UTC NOAA

TAF LIPQ 231700Z 2318/2418 VRB05KT CAVOK

Example: see airport list